地図

経路データ

SID SEASON NUMBER BASIN SUBBASIN NAME ISO_TIME NATURE LAT LON WMO_WIND WMO_PRES WMO_AGENCY TRACK_TYPE DIST2LAND LANDFALL IFLAG USA_AGENCY USA_ATCF_ID USA_LAT USA_LON USA_RECORD USA_STATUS USA_WIND USA_PRES USA_SSHS USA_R34_NE USA_R34_SE USA_R34_SW USA_R34_NW USA_R50_NE USA_R50_SE USA_R50_SW USA_R50_NW USA_R64_NE USA_R64_SE USA_R64_SW USA_R64_NW USA_POCI USA_ROCI USA_RMW USA_EYE TOKYO_LAT TOKYO_LON TOKYO_GRADE TOKYO_WIND TOKYO_PRES TOKYO_R50_DIR TOKYO_R50_LONG TOKYO_R50_SHORT TOKYO_R30_DIR TOKYO_R30_LONG TOKYO_R30_SHORT TOKYO_LAND CMA_LAT CMA_LON CMA_CAT CMA_WIND CMA_PRES HKO_LAT HKO_LON HKO_CAT HKO_WIND HKO_PRES NEWDELHI_LAT NEWDELHI_LON NEWDELHI_GRADE NEWDELHI_WIND NEWDELHI_PRES NEWDELHI_CI NEWDELHI_DP NEWDELHI_POCI REUNION_LAT REUNION_LON REUNION_TYPE REUNION_WIND REUNION_PRES REUNION_TNUM REUNION_CI REUNION_RMW REUNION_R34_NE REUNION_R34_SE REUNION_R34_SW REUNION_R34_NW REUNION_R50_NE REUNION_R50_SE REUNION_R50_SW REUNION_R50_NW REUNION_R64_NE REUNION_R64_SE REUNION_R64_SW REUNION_R64_NW BOM_LAT BOM_LON BOM_TYPE BOM_WIND BOM_PRES BOM_TNUM BOM_CI BOM_RMW BOM_R34_NE BOM_R34_SE BOM_R34_SW BOM_R34_NW BOM_R50_NE BOM_R50_SE BOM_R50_SW BOM_R50_NW BOM_R64_NE BOM_R64_SE BOM_R64_SW BOM_R64_NW BOM_ROCI BOM_POCI BOM_EYE BOM_POS_METHOD BOM_PRES_METHOD NADI_LAT NADI_LON NADI_CAT NADI_WIND NADI_PRES WELLINGTON_LAT WELLINGTON_LON WELLINGTON_WIND WELLINGTON_PRES DS824_LAT DS824_LON DS824_STAGE DS824_WIND DS824_PRES TD9636_LAT TD9636_LON TD9636_STAGE TD9636_WIND TD9636_PRES TD9635_LAT TD9635_LON TD9635_WIND TD9635_PRES TD9635_ROCI NEUMANN_LAT NEUMANN_LON NEUMANN_CLASS NEUMANN_WIND NEUMANN_PRES MLC_LAT MLC_LON MLC_CLASS MLC_WIND MLC_PRES USA_GUST BOM_GUST BOM_GUST_PER REUNION_GUST REUNION_GUST_PER USA_SEAHGT USA_SEARAD_NE USA_SEARAD_SE USA_SEARAD_SW USA_SEARAD_NW STORM_SPEED STORM_DIR
1939244N18145 1939 57 WP MM NOT_NAMED 1939-09-01 10:00:00 NR 17.6000 144.500 main 1966 1881 __________O___ -1 17.6000 144.500 7 28 300
1939244N18145 1939 57 WP MM NOT_NAMED 1939-09-01 12:00:00 NR 18.0639 143.660 main 1881 1767 __________P___ -1 18.0639 143.660 7 27 300
1939244N18145 1939 57 WP MM NOT_NAMED 1939-09-01 15:00:00 NR 18.7446 142.440 main 1767 1655 __________P___ -1 18.7446 142.440 7 26 301
1939244N18145 1939 57 WP MM NOT_NAMED 1939-09-01 18:00:00 NR 19.3958 141.340 main 1655 1558 __________P___ -1 19.3958 141.340 7 23 304
1939244N18145 1939 57 WP MM NOT_NAMED 1939-09-01 21:00:00 NR 20.0069 140.441 main 1558 1528 __________P___ -1 20.0069 140.441 7 20 307
1939244N18145 1939 57 WP MM NOT_NAMED 1939-09-01 22:00:00 NR 20.2000 140.200 main 1528 1468 __________O___ -1 20.2000 140.200 7 16 314
1939244N18145 1939 57 WP MM NOT_NAMED 1939-09-02 00:00:00 NR 20.5701 139.816 main 1468 1398 __________P___ -1 20.5701 139.816 7 14 322
1939244N18145 1939 57 WP MM NOT_NAMED 1939-09-02 03:00:00 NR 21.0967 139.450 main 1398 1346 __________P___ -1 21.0967 139.450 7 12 334
1939244N18145 1939 57 WP MM NOT_NAMED 1939-09-02 06:00:00 NR 21.6077 139.272 main 1346 1294 __________P___ -1 21.6077 139.272 7 11 348
1939244N18145 1939 57 WP MM NOT_NAMED 1939-09-02 09:00:00 NR 22.1236 139.208 main 1294 1275 __________P___ -1 22.1236 139.208 7 10 355
1939244N18145 1939 57 WP MM NOT_NAMED 1939-09-02 10:00:00 NR 22.3000 139.200 main 1275 1233 __________O___ -1 22.3000 139.200 7 11 352
1939244N18145 1939 57 WP MM NOT_NAMED 1939-09-02 12:00:00 NR 22.6690 139.122 main 1233 1183 __________P___ -1 22.6690 139.122 7 11 352
1939244N18145 1939 57 WP MM NOT_NAMED 1939-09-02 15:00:00 NR 23.2354 139.067 main 1183 1118 __________P___ -1 23.2354 139.067 7 12 358
1939244N18145 1939 57 WP MM NOT_NAMED 1939-09-02 18:00:00 NR 23.8142 139.083 main 1118 1057 __________P___ -1 23.8142 139.083 7 12 4
1939244N18145 1939 57 WP MM NOT_NAMED 1939-09-02 21:00:00 NR 24.4024 139.161 main 1057 1036 __________P___ -1 24.4024 139.161 7 12 7
1939244N18145 1939 57 WP MM NOT_NAMED 1939-09-02 22:00:00 NR 24.6000 139.200 main 1036 996 __________O___ -1 24.6000 139.200 7 12 10
1939244N18145 1939 57 WP MM NOT_NAMED 1939-09-03 00:00:00 NR 25.0126 139.274 main 996 937 __________P___ -1 25.0126 139.274 7 13 12
1939244N18145 1939 57 WP MM NOT_NAMED 1939-09-03 03:00:00 NR 25.6381 139.436 main 937 882 __________P___ -1 25.6381 139.436 7 13 15
1939244N18145 1939 57 WP MM NOT_NAMED 1939-09-03 06:00:00 NR 26.2497 139.650 main 886 834 __________P___ -1 26.2497 139.650 7 13 20
1939244N18145 1939 57 WP MM NOT_NAMED 1939-09-03 09:00:00 NR 26.8221 139.907 main 834 819 __________P___ -1 26.8221 139.907 7 12 23
1939244N18145 1939 57 WP MM NOT_NAMED 1939-09-03 10:00:00 NR 27.0000 140.000 main 819 795 __________O___ -1 27.0000 140.000 7 11 27
1939244N18145 1939 57 WP MM NOT_NAMED 1939-09-03 12:00:00 NR 27.3328 140.196 main 800 769 __________P___ -1 27.3328 140.196 7 11 30
1939244N18145 1939 57 WP MM NOT_NAMED 1939-09-03 15:00:00 NR 27.7834 140.510 main 769 738 __________P___ -1 27.7834 140.510 7 10 34
1939244N18145 1939 57 WP MM NOT_NAMED 1939-09-03 18:00:00 NR 28.1914 140.842 main 738 706 __________P___ -1 28.1914 140.842 7 10 37
1939244N18145 1939 57 WP MM NOT_NAMED 1939-09-03 21:00:00 NR 28.5747 141.184 main 706 699 __________P___ -1 28.5747 141.184 7 10 38
1939244N18145 1939 57 WP MM NOT_NAMED 1939-09-03 22:00:00 NR 28.7000 141.300 main 699 __________O___ -1 28.7000 141.300 7 10 40

デジタル台風データ・検索

IBTrACS Databaseについて

本データベースは、米国NOAAが公開する1842年以降の世界の熱帯低気圧のベストトラックデータアーカイブInternational Best Track Archive for Climate Stewardship (IBTrACS)を、ウェブで閲覧しやすい形式に変換したものです。

最終更新日:2021-11-26